createdAt,value
2023-05-08T00:00:05.177Z,10.65
2023-05-08T00:02:56.062Z,10.61
2023-05-08T00:05:27.164Z,10.58
2023-05-08T00:08:01.428Z,10.41
2023-05-08T00:10:32.632Z,10.36
2023-05-08T00:13:03.421Z,10.38
2023-05-08T00:15:34.267Z,10.44
2023-05-08T00:18:05.734Z,10.47
2023-05-08T00:20:36.839Z,10.47
2023-05-08T00:23:07.467Z,10.45
2023-05-08T00:25:38.167Z,10.49
2023-05-08T00:28:08.815Z,10.52
2023-05-08T00:30:39.508Z,10.53
2023-05-08T00:33:11.668Z,10.46
2023-05-08T00:35:43.019Z,10.45
2023-05-08T00:38:13.668Z,10.45
2023-05-08T00:40:44.434Z,10.45
2023-05-08T00:43:15.112Z,10.45
2023-05-08T00:45:46.978Z,10.44
2023-05-08T00:48:18.196Z,10.42
2023-05-08T00:50:49.316Z,10.43
2023-05-08T00:53:20.687Z,10.47
2023-05-08T00:55:52.524Z,10.52
2023-05-08T00:58:24.713Z,10.54
2023-05-08T01:00:56.967Z,10.49
2023-05-08T01:03:29.198Z,10.55
2023-05-08T01:06:00.715Z,10.58
2023-05-08T01:08:31.727Z,10.58
2023-05-08T01:11:09.232Z,10.59
2023-05-08T01:13:51.107Z,10.61
2023-05-08T01:16:30.506Z,10.63
2023-05-08T01:19:10.385Z,10.63
2023-05-08T01:21:48.156Z,10.61
2023-05-08T01:24:54.871Z,10.56
2023-05-08T01:27:49.459Z,10.46
2023-05-08T01:30:41.385Z,10.45
2023-05-08T01:33:19.818Z,10.36
2023-05-08T01:35:58.483Z,10.30
2023-05-08T01:38:41.245Z,10.11
2023-05-08T01:41:17.367Z,10.06
2023-05-08T01:43:53.464Z,9.99
2023-05-08T01:46:28.351Z,9.96
2023-05-08T01:49:09.150Z,9.90
2023-05-08T01:51:47.074Z,9.85
2023-05-08T01:54:25.030Z,9.85
2023-05-08T01:56:58.990Z,9.85
2023-05-08T01:59:31.456Z,9.80
2023-05-08T02:02:04.205Z,9.78
2023-05-08T02:04:37.601Z,9.79
2023-05-08T02:07:09.156Z,9.74
2023-05-08T02:09:41.973Z,9.69
2023-05-08T02:12:13.412Z,9.56
2023-05-08T02:14:46.919Z,9.48
2023-05-08T02:17:18.696Z,9.45
2023-05-08T02:19:50.764Z,9.51
2023-05-08T02:22:24.402Z,9.47
2023-05-08T02:24:57.509Z,9.45
2023-05-08T02:27:30.161Z,9.48
2023-05-08T02:30:00.673Z,9.50
2023-05-08T02:32:33.338Z,9.50
2023-05-08T02:35:03.773Z,9.56
2023-05-08T02:37:35.218Z,9.61
2023-05-08T02:40:09.878Z,9.66
2023-05-08T02:42:41.354Z,9.66
2023-05-08T02:45:15.115Z,9.62
2023-05-08T02:47:47.469Z,9.66
2023-05-08T02:50:21.774Z,9.70
2023-05-08T02:53:00.495Z,9.65
2023-05-08T02:55:35.446Z,9.66
2023-05-08T02:58:18.734Z,9.71
2023-05-08T03:00:56.234Z,9.78
2023-05-08T03:03:32.338Z,9.85
2023-05-08T03:06:10.123Z,9.86
2023-05-08T03:08:41.521Z,9.85
2023-05-08T03:11:16.142Z,9.82
2023-05-08T03:13:49.950Z,9.77
2023-05-08T03:16:21.382Z,9.78
2023-05-08T03:18:58.000Z,9.75
2023-05-08T03:21:32.413Z,9.77
2023-05-08T03:24:07.292Z,9.71
2023-05-08T03:26:39.420Z,9.57
2023-05-08T03:29:10.785Z,9.53
2023-05-08T03:31:42.527Z,9.56
2023-05-08T03:34:15.512Z,9.57
2023-05-08T03:36:46.835Z,9.59
2023-05-08T03:39:18.327Z,9.59
2023-05-08T03:41:49.766Z,9.62
2023-05-08T03:44:21.701Z,9.60
2023-05-08T03:46:55.045Z,9.60
2023-05-08T03:49:27.424Z,9.62
2023-05-08T03:51:58.870Z,9.71
2023-05-08T03:54:30.261Z,9.73
2023-05-08T03:57:01.851Z,9.76
2023-05-08T03:59:45.686Z,9.78
2023-05-08T04:02:30.160Z,9.77
2023-05-08T04:05:11.834Z,9.77
2023-05-08T04:07:49.020Z,9.72
2023-05-08T04:10:26.256Z,9.66
2023-05-08T04:13:05.775Z,9.60
2023-05-08T04:15:40.463Z,9.55
2023-05-08T04:18:15.851Z,9.58
2023-05-08T04:20:50.526Z,9.62
2023-05-08T04:23:23.272Z,9.65
2023-05-08T04:25:56.630Z,9.69
2023-05-08T04:28:28.039Z,9.72
2023-05-08T04:30:59.978Z,9.70
2023-05-08T04:33:31.328Z,9.75
2023-05-08T04:36:03.966Z,9.85
2023-05-08T04:38:38.934Z,10.09
2023-05-08T04:41:10.082Z,10.36
2023-05-08T04:43:40.927Z,10.64
2023-05-08T04:46:11.789Z,11.00
2023-05-08T04:48:43.276Z,11.40
2023-05-08T04:51:13.975Z,11.74
2023-05-08T04:53:47.659Z,12.08
2023-05-08T04:56:19.649Z,12.50
2023-05-08T04:58:51.328Z,12.80
2023-05-08T05:01:22.761Z,13.06
2023-05-08T05:03:54.059Z,13.26
2023-05-08T05:06:24.918Z,13.50
2023-05-08T05:08:55.642Z,13.53
2023-05-08T05:11:26.552Z,13.59
2023-05-08T05:13:57.190Z,13.85
2023-05-08T05:16:28.481Z,14.21
2023-05-08T05:18:59.766Z,14.42
2023-05-08T05:21:30.549Z,14.73
2023-05-08T05:24:01.819Z,15.07
2023-05-08T05:26:32.574Z,15.37
2023-05-08T05:29:03.184Z,15.63
2023-05-08T05:31:33.980Z,15.83
2023-05-08T05:34:04.808Z,16.01
2023-05-08T05:36:35.751Z,16.12
2023-05-08T05:39:06.927Z,16.16
2023-05-08T05:41:38.049Z,16.20
2023-05-08T05:44:09.228Z,16.19
2023-05-08T05:46:42.075Z,16.23
2023-05-08T05:49:14.786Z,16.37
2023-05-08T05:51:45.598Z,16.48
2023-05-08T05:54:16.358Z,16.60
2023-05-08T05:56:47.190Z,16.72
2023-05-08T05:59:18.467Z,16.67
2023-05-08T06:01:49.636Z,16.70
2023-05-08T06:04:22.046Z,16.86
2023-05-08T06:06:52.761Z,17.00
2023-05-08T06:09:23.611Z,17.13
2023-05-08T06:11:55.633Z,17.23
2023-05-08T06:14:26.850Z,17.36
2023-05-08T06:16:57.572Z,17.47
2023-05-08T06:19:28.721Z,17.34
2023-05-08T06:21:59.376Z,17.34
2023-05-08T06:24:30.001Z,17.23
2023-05-08T06:27:00.880Z,17.12
2023-05-08T06:29:31.638Z,17.20
2023-05-08T06:32:02.590Z,17.40
2023-05-08T06:34:33.271Z,17.53
2023-05-08T06:37:03.994Z,17.43
2023-05-08T06:39:34.532Z,17.45
2023-05-08T06:42:08.237Z,17.56
2023-05-08T06:44:42.176Z,17.71
2023-05-08T06:47:12.875Z,17.83
2023-05-08T06:49:43.647Z,17.92
2023-05-08T06:52:14.319Z,17.92
2023-05-08T06:54:45.010Z,17.99
2023-05-08T06:57:16.277Z,18.04
2023-05-08T06:59:47.069Z,18.22
2023-05-08T07:02:17.800Z,18.35
2023-05-08T07:04:48.651Z,18.44
2023-05-08T07:07:19.564Z,18.57
2023-05-08T07:09:50.212Z,18.70
2023-05-08T07:12:20.812Z,18.72
2023-05-08T07:14:51.443Z,18.81
2023-05-08T07:17:22.005Z,18.94
2023-05-08T07:19:54.217Z,18.94
2023-05-08T07:22:24.959Z,18.92
2023-05-08T07:24:55.711Z,19.05
2023-05-08T07:27:26.464Z,19.19
2023-05-08T07:29:57.504Z,19.30
2023-05-08T07:32:28.144Z,19.15
2023-05-08T07:34:58.950Z,19.04
2023-05-08T07:37:29.809Z,19.15
2023-05-08T07:40:00.674Z,19.28
2023-05-08T07:42:31.343Z,19.44
2023-05-08T07:45:03.204Z,19.59
2023-05-08T07:47:33.944Z,19.71
2023-05-08T07:50:05.228Z,19.53
2023-05-08T07:52:35.897Z,19.52
2023-05-08T07:55:08.476Z,19.54
2023-05-08T07:57:43.185Z,19.59
2023-05-08T08:00:16.480Z,19.68
2023-05-08T08:02:47.885Z,19.76
2023-05-08T08:05:18.788Z,19.68
2023-05-08T08:07:49.460Z,19.64
2023-05-08T08:10:20.204Z,19.59
2023-05-08T08:12:50.897Z,19.60
2023-05-08T08:15:22.141Z,19.61
2023-05-08T08:17:52.997Z,19.63
2023-05-08T08:20:23.966Z,19.60
2023-05-08T08:22:54.585Z,19.60
2023-05-08T08:25:25.589Z,19.63
2023-05-08T08:27:56.153Z,19.52
2023-05-08T08:30:27.158Z,19.36
2023-05-08T08:33:02.076Z,19.35
2023-05-08T08:35:33.742Z,19.39
2023-05-08T08:38:04.346Z,19.43
2023-05-08T08:40:39.599Z,19.50
2023-05-08T08:43:10.610Z,19.60
2023-05-08T08:45:41.276Z,19.66
2023-05-08T08:48:14.020Z,19.64
2023-05-08T08:50:49.048Z,19.54
2023-05-08T08:53:27.316Z,19.57
2023-05-08T08:56:02.223Z,19.65
2023-05-08T08:58:39.241Z,19.69
2023-05-08T09:01:15.154Z,19.71
2023-05-08T09:03:47.649Z,19.78
2023-05-08T09:06:20.468Z,19.85
2023-05-08T09:08:52.763Z,19.92
2023-05-08T09:11:23.487Z,19.90
2023-05-08T09:13:55.664Z,19.90
2023-05-08T09:16:25.362Z,20.01
2023-05-08T09:18:56.310Z,20.10
2023-05-08T09:21:28.279Z,20.15
2023-05-08T09:24:00.441Z,20.22
2023-05-08T09:26:32.328Z,20.24
2023-05-08T09:29:13.764Z,20.10
2023-05-08T09:31:46.316Z,19.91
2023-05-08T09:34:28.340Z,19.80
2023-05-08T09:37:13.424Z,19.84
2023-05-08T09:39:45.999Z,19.88
2023-05-08T09:42:16.834Z,19.92
2023-05-08T09:44:49.975Z,19.92
2023-05-08T09:47:22.257Z,19.91
2023-05-08T09:50:03.888Z,19.85
2023-05-08T09:52:37.200Z,19.78
2023-05-08T09:55:10.707Z,19.76
2023-05-08T09:57:52.681Z,19.80
2023-05-08T10:00:25.161Z,19.89
2023-05-08T10:03:01.296Z,19.90
2023-05-08T10:05:34.543Z,19.86
2023-05-08T10:08:22.151Z,19.84
2023-05-08T10:10:53.316Z,19.86
2023-05-08T10:13:24.008Z,19.81
2023-05-08T10:15:57.871Z,19.71
2023-05-08T10:18:35.325Z,19.64
2023-05-08T10:21:08.128Z,19.64
2023-05-08T10:23:41.168Z,19.62
2023-05-08T10:26:15.695Z,19.66
2023-05-08T10:28:57.033Z,19.74
2023-05-08T10:31:32.347Z,19.84
2023-05-08T10:34:05.127Z,19.90
2023-05-08T10:36:36.959Z,20.02
2023-05-08T10:39:08.289Z,20.14
2023-05-08T10:41:40.159Z,20.14
2023-05-08T10:44:11.758Z,20.02
2023-05-08T10:46:50.407Z,19.96
2023-05-08T10:49:26.725Z,20.00
2023-05-08T10:52:07.685Z,20.01
2023-05-08T10:54:53.061Z,19.98
2023-05-08T10:57:23.666Z,19.99
2023-05-08T10:59:54.305Z,20.02
2023-05-08T11:02:32.746Z,19.96
2023-05-08T11:08:01.281Z,20.00
2023-05-08T11:10:37.175Z,19.98
2023-05-08T11:13:09.048Z,19.87
2023-05-08T11:15:42.420Z,19.79
2023-05-08T11:18:17.721Z,19.75
2023-05-08T11:21:00.269Z,19.70
2023-05-08T11:23:31.679Z,19.67
2023-05-08T11:26:04.065Z,19.69
2023-05-08T11:28:38.527Z,19.65
2023-05-08T11:31:10.728Z,19.54
2023-05-08T11:33:41.515Z,19.47
2023-05-08T11:36:20.728Z,19.44
2023-05-08T11:39:12.656Z,19.37
2023-05-08T11:41:43.302Z,19.38
2023-05-08T11:44:20.585Z,19.42
2023-05-08T11:46:56.124Z,19.43
2023-05-08T11:49:29.999Z,19.38
2023-05-08T11:52:06.078Z,19.38
2023-05-08T11:54:37.494Z,19.34
2023-05-08T11:57:08.149Z,19.30
2023-05-08T11:59:43.686Z,19.19
2023-05-08T12:02:14.335Z,19.09
2023-05-08T12:04:49.024Z,19.16
2023-05-08T12:07:20.601Z,19.22
2023-05-08T12:09:51.519Z,19.27
2023-05-08T12:12:22.214Z,19.28
2023-05-08T12:14:53.942Z,19.22
2023-05-08T12:17:24.734Z,19.23
2023-05-08T12:20:03.983Z,19.21
2023-05-08T12:22:34.648Z,19.16
2023-05-08T12:25:08.396Z,19.14
2023-05-08T12:27:40.581Z,19.10
2023-05-08T12:30:11.240Z,19.11
2023-05-08T12:32:43.996Z,19.13
2023-05-08T12:35:15.969Z,19.13
2023-05-08T12:37:48.002Z,19.09
2023-05-08T12:40:32.922Z,19.08
2023-05-08T12:43:05.150Z,19.11
2023-05-08T12:45:39.185Z,19.17
2023-05-08T12:48:11.933Z,19.27
2023-05-08T12:50:45.348Z,19.36
2023-05-08T12:53:17.998Z,19.43
2023-05-08T12:55:55.250Z,19.43
2023-05-08T12:58:28.899Z,19.43
2023-05-08T13:01:12.881Z,19.25
2023-05-08T13:03:44.701Z,19.20
2023-05-08T13:06:23.748Z,19.18
2023-05-08T13:08:57.200Z,19.16
2023-05-08T13:11:34.488Z,19.16
2023-05-08T13:14:05.257Z,19.18
2023-05-08T13:16:45.149Z,19.15
2023-05-08T13:19:16.693Z,19.11
2023-05-08T13:21:48.169Z,19.09
2023-05-08T13:24:18.892Z,19.04
2023-05-08T13:26:49.752Z,19.01
2023-05-08T13:29:22.150Z,18.96
2023-05-08T13:31:52.920Z,18.96
2023-05-08T13:34:25.531Z,19.00
2023-05-08T13:36:56.315Z,19.04
2023-05-08T13:39:26.909Z,19.04
2023-05-08T13:41:57.551Z,19.00
2023-05-08T13:44:28.286Z,18.95
2023-05-08T13:46:59.352Z,18.89
2023-05-08T13:49:29.975Z,18.89
2023-05-08T13:52:01.129Z,18.85
2023-05-08T13:54:32.196Z,18.79
2023-05-08T13:57:03.772Z,18.74
2023-05-08T13:59:34.535Z,18.70
2023-05-08T14:02:05.747Z,18.64
2023-05-08T14:04:36.615Z,18.58
2023-05-08T14:07:07.516Z,18.51
2023-05-08T14:09:38.270Z,18.50
2023-05-08T14:12:10.120Z,18.49
2023-05-08T14:14:40.954Z,18.48
2023-05-08T14:17:11.792Z,18.46
2023-05-08T14:19:42.455Z,18.40
2023-05-08T14:22:13.180Z,18.38
2023-05-08T14:24:44.308Z,18.39
2023-05-08T14:27:15.820Z,18.41
2023-05-08T14:29:46.491Z,18.40
2023-05-08T14:32:17.426Z,18.41
2023-05-08T14:34:48.754Z,18.38
2023-05-08T14:37:19.469Z,18.36
2023-05-08T14:39:52.648Z,18.30
2023-05-08T14:42:23.805Z,18.26
2023-05-08T14:44:55.922Z,18.25
2023-05-08T14:47:27.106Z,18.23
2023-05-08T14:49:58.046Z,18.21
2023-05-08T14:52:29.018Z,18.19
2023-05-08T14:55:00.206Z,18.17
2023-05-08T14:57:31.151Z,18.17
2023-05-08T15:00:01.825Z,18.14
2023-05-08T15:02:32.592Z,18.09
2023-05-08T15:05:08.362Z,18.06
2023-05-08T15:07:42.342Z,18.05
2023-05-08T15:10:14.727Z,18.03
2023-05-08T15:12:43.901Z,18.02
2023-05-08T15:15:15.233Z,18.04
2023-05-08T15:17:46.061Z,18.03
2023-05-08T15:20:16.905Z,18.02
2023-05-08T15:22:47.590Z,18.01
2023-05-08T15:25:18.351Z,17.99
2023-05-08T15:27:52.584Z,17.95
2023-05-08T15:30:24.275Z,17.89
2023-05-08T15:32:54.898Z,17.86
2023-05-08T15:35:25.614Z,17.81
2023-05-08T15:37:56.322Z,17.80
2023-05-08T15:40:27.072Z,17.77
2023-05-08T15:42:58.490Z,17.75
2023-05-08T15:45:29.257Z,17.74
2023-05-08T15:48:00.045Z,17.70
2023-05-08T15:50:30.720Z,17.65
2023-05-08T15:53:01.321Z,17.63
2023-05-08T15:55:32.010Z,17.61
2023-05-08T15:58:02.794Z,17.59
2023-05-08T16:00:41.025Z,17.58
2023-05-08T16:03:15.845Z,17.55
2023-05-08T16:05:46.678Z,17.53
2023-05-08T16:08:18.074Z,17.48
2023-05-08T16:10:49.573Z,17.42
2023-05-08T16:13:20.296Z,17.39
2023-05-08T16:15:51.215Z,17.35
2023-05-08T16:18:24.559Z,17.32
2023-05-08T16:20:55.296Z,17.30
2023-05-08T16:23:26.362Z,17.26
2023-05-08T16:25:57.102Z,17.23
2023-05-08T16:28:27.827Z,17.20
2023-05-08T16:30:58.550Z,17.17
2023-05-08T16:33:29.255Z,17.14
2023-05-08T16:35:59.953Z,17.11
2023-05-08T16:38:30.835Z,17.10
2023-05-08T16:41:06.397Z,17.09
2023-05-08T16:43:37.093Z,17.06
2023-05-08T16:46:09.744Z,17.00
2023-05-08T16:48:41.469Z,16.97
2023-05-08T16:51:12.258Z,16.94
2023-05-08T16:53:43.434Z,16.90
2023-05-08T16:56:14.349Z,16.87
2023-05-08T16:58:45.006Z,16.83
2023-05-08T17:01:16.166Z,16.76
2023-05-08T17:03:47.243Z,16.72
2023-05-08T17:06:18.061Z,16.67
2023-05-08T17:08:48.794Z,16.63
2023-05-08T17:11:19.598Z,16.59
2023-05-08T17:13:50.355Z,16.55
2023-05-08T17:16:21.236Z,16.52
2023-05-08T17:18:51.974Z,16.48
2023-05-08T17:21:22.618Z,16.45
2023-05-08T17:23:53.511Z,16.38
2023-05-08T17:26:24.555Z,16.31
2023-05-08T17:28:55.262Z,16.27
2023-05-08T17:31:26.108Z,16.23
2023-05-08T17:33:56.964Z,16.14
2023-05-08T17:36:27.641Z,16.06
2023-05-08T17:38:58.529Z,15.99
2023-05-08T17:41:29.281Z,15.93
2023-05-08T17:44:00.140Z,15.86
2023-05-08T17:46:31.084Z,15.80
2023-05-08T17:49:02.036Z,15.75
2023-05-08T17:51:32.902Z,15.73
2023-05-08T17:54:03.827Z,15.70
2023-05-08T17:56:34.748Z,15.64
2023-05-08T17:59:05.396Z,15.56
2023-05-08T18:01:36.099Z,15.50
2023-05-08T18:04:07.654Z,15.47
2023-05-08T18:06:38.397Z,15.44
2023-05-08T18:09:09.394Z,15.37
2023-05-08T18:11:41.346Z,15.29
2023-05-08T18:14:12.184Z,15.25
2023-05-08T18:16:42.897Z,15.19
2023-05-08T18:19:14.955Z,15.07
2023-05-08T18:21:45.764Z,14.99
2023-05-08T18:24:16.750Z,14.94
2023-05-08T18:26:50.185Z,14.91
2023-05-08T18:29:22.175Z,14.87
2023-05-08T18:31:53.033Z,14.82
2023-05-08T18:34:23.781Z,14.78
2023-05-08T18:36:56.158Z,14.74
2023-05-08T18:39:28.886Z,14.68
2023-05-08T18:42:00.746Z,14.58
2023-05-08T18:44:31.855Z,14.52
2023-05-08T18:47:05.386Z,14.48
2023-05-08T18:49:36.350Z,14.46
2023-05-08T18:52:07.114Z,14.44
2023-05-08T18:54:38.052Z,14.41
2023-05-08T18:57:09.455Z,14.37
2023-05-08T18:59:40.201Z,14.30
2023-05-08T19:02:11.315Z,14.26
2023-05-08T19:04:42.931Z,14.22
2023-05-08T19:07:13.718Z,14.19
2023-05-08T19:09:44.483Z,14.16
2023-05-08T19:12:15.592Z,14.14
2023-05-08T19:14:46.597Z,14.11
2023-05-08T19:17:17.778Z,14.09
2023-05-08T19:19:48.593Z,14.07
2023-05-08T19:22:19.410Z,14.04
2023-05-08T19:24:50.389Z,14.02
2023-05-08T19:27:24.346Z,13.99
2023-05-08T19:29:55.215Z,13.96
2023-05-08T19:32:26.051Z,13.92
2023-05-08T19:34:57.553Z,13.90
2023-05-08T19:37:29.109Z,13.84
2023-05-08T19:39:59.959Z,13.79
2023-05-08T19:42:31.048Z,13.75
2023-05-08T19:45:02.120Z,13.71
2023-05-08T19:47:33.039Z,13.64
2023-05-08T19:50:03.967Z,13.60
2023-05-08T19:52:34.751Z,13.57
2023-05-08T19:55:06.286Z,13.53
2023-05-08T19:57:36.939Z,13.49
2023-05-08T20:00:10.486Z,13.46
2023-05-08T20:02:41.732Z,13.42
2023-05-08T20:05:22.346Z,13.39
2023-05-08T20:07:54.095Z,13.34
2023-05-08T20:10:25.736Z,13.32
2023-05-08T20:12:56.484Z,13.36
2023-05-08T20:15:27.468Z,13.48
2023-05-08T20:17:59.218Z,13.60
2023-05-08T20:20:32.017Z,13.71
2023-05-08T20:23:03.056Z,13.76
2023-05-08T20:25:33.824Z,13.74
2023-05-08T20:28:04.505Z,13.63
2023-05-08T20:30:35.284Z,13.50
2023-05-08T20:33:06.614Z,13.38
2023-05-08T20:35:37.368Z,13.32
2023-05-08T20:38:08.258Z,13.27
2023-05-08T20:40:39.014Z,13.27
2023-05-08T20:43:11.011Z,13.34
2023-05-08T20:45:41.841Z,13.33
2023-05-08T20:48:12.493Z,13.29
2023-05-08T20:50:43.078Z,13.23
2023-05-08T20:53:13.648Z,13.15
2023-05-08T20:55:44.449Z,13.10
2023-05-08T20:58:15.163Z,13.00
2023-05-08T21:00:45.835Z,12.91
2023-05-08T21:03:16.522Z,12.86
2023-05-08T21:05:47.272Z,12.80
2023-05-08T21:08:17.914Z,12.75
2023-05-08T21:10:48.674Z,12.72
2023-05-08T21:13:19.467Z,12.69
2023-05-08T21:15:52.398Z,12.67
2023-05-08T21:18:23.292Z,12.65
2023-05-08T21:20:54.013Z,12.59
2023-05-08T21:23:24.883Z,12.55
2023-05-08T21:25:55.716Z,12.51
2023-05-08T21:28:26.505Z,12.49
2023-05-08T21:30:57.193Z,12.48
2023-05-08T21:33:27.812Z,12.47
2023-05-08T21:36:00.110Z,12.46
2023-05-08T21:38:31.056Z,12.47
2023-05-08T21:41:08.391Z,12.44
2023-05-08T21:43:39.858Z,12.41
2023-05-08T21:46:10.515Z,12.36
2023-05-08T21:48:41.422Z,12.34
2023-05-08T21:51:12.074Z,12.31
2023-05-08T21:53:42.751Z,12.28
2023-05-08T21:56:13.652Z,12.20
2023-05-08T21:58:44.611Z,12.21
2023-05-08T22:01:15.336Z,12.19
2023-05-08T22:03:46.202Z,12.16
2023-05-08T22:06:17.049Z,12.12
2023-05-08T22:08:47.958Z,12.06
2023-05-08T22:11:18.716Z,11.97
2023-05-08T22:13:49.334Z,11.89
2023-05-08T22:16:19.950Z,11.79
2023-05-08T22:18:50.717Z,11.67
2023-05-08T22:21:21.594Z,11.56
2023-05-08T22:23:52.191Z,11.46
2023-05-08T22:26:23.853Z,11.41
2023-05-08T22:28:54.499Z,11.38
2023-05-08T22:31:25.300Z,11.32
2023-05-08T22:33:56.004Z,11.25
2023-05-08T22:36:27.986Z,11.19
2023-05-08T22:38:58.643Z,11.15
2023-05-08T22:41:30.496Z,11.11
2023-05-08T22:44:01.523Z,11.09
2023-05-08T22:46:33.216Z,11.04
2023-05-08T22:49:04.264Z,11.04
2023-05-08T22:51:36.159Z,11.01
2023-05-08T22:54:07.468Z,10.98
2023-05-08T22:56:38.229Z,10.94
2023-05-08T22:59:09.233Z,10.88
2023-05-08T23:01:40.150Z,10.85
2023-05-08T23:04:10.852Z,10.79
2023-05-08T23:06:41.598Z,10.77
2023-05-08T23:09:12.345Z,10.71
2023-05-08T23:11:43.160Z,10.67
2023-05-08T23:14:13.804Z,10.63
2023-05-08T23:16:44.576Z,10.60
2023-05-08T23:19:15.313Z,10.56
2023-05-08T23:21:46.176Z,10.52
2023-05-08T23:24:17.596Z,10.52
2023-05-08T23:26:49.822Z,10.54
2023-05-08T23:29:20.506Z,10.57
2023-05-08T23:31:51.407Z,10.61
2023-05-08T23:34:22.137Z,10.65
2023-05-08T23:36:52.902Z,10.68
2023-05-08T23:39:23.598Z,10.71
2023-05-08T23:41:54.556Z,10.74
2023-05-08T23:44:25.274Z,10.74
2023-05-08T23:46:56.083Z,10.75
2023-05-08T23:49:26.914Z,10.76
2023-05-08T23:51:57.507Z,10.77
2023-05-08T23:54:28.359Z,10.81
2023-05-08T23:56:59.074Z,10.84
2023-05-08T23:59:29.756Z,10.87
